Terminal Aerodrome Forecast
Issued by NWS

Home | Current Version | Previous Version | Text Only | Print | Product List | Glossary On
Versions: 1 2 3 4 5 6 7 8 9 10 11 12 13 14 15 16 17
623
FTUS42 KMLB 032324
TAFFPR
TAF
KFPR 032324Z 0400/0424 08007KT P6SM BKN035
     FM041700 12013KT P6SM BKN050
     FM041900 13013G18KT P6SM BKN050
     FM042200 14010KT P6SM OVC050=

USA.gov is the U.S. government's official web portal to all federal, state and local government web resources and services.